sensor_id;sensor_type;location;lat;lon;timestamp;P1;durP1;ratioP1;P2;durP2;ratioP2
75071;SDS011;63651;55.728;38.022;2023-02-01T00:04:42;10.48;;;6.40;;
75071;SDS011;63651;55.728;38.022;2023-02-01T00:09:43;13.43;;;7.00;;
75071;SDS011;63651;55.728;38.022;2023-02-01T00:14:45;10.95;;;6.97;;
75071;SDS011;63651;55.728;38.022;2023-02-01T00:19:46;12.00;;;6.65;;
75071;SDS011;63651;55.728;38.022;2023-02-01T00:24:47;11.75;;;6.93;;
75071;SDS011;63651;55.728;38.022;2023-02-01T00:29:48;9.90;;;6.05;;
75071;SDS011;63651;55.728;38.022;2023-02-01T00:34:49;10.10;;;6.68;;
75071;SDS011;63651;55.728;38.022;2023-02-01T00:39:50;10.90;;;6.07;;
75071;SDS011;63651;55.728;38.022;2023-02-01T00:44:52;11.20;;;6.50;;
75071;SDS011;63651;55.728;38.022;2023-02-01T00:49:53;9.68;;;6.20;;
75071;SDS011;63651;55.728;38.022;2023-02-01T00:54:54;10.30;;;6.55;;
75071;SDS011;63651;55.728;38.022;2023-02-01T00:59:55;12.02;;;6.75;;
75071;SDS011;63651;55.728;38.022;2023-02-01T01:04:56;12.27;;;6.72;;
75071;SDS011;63651;55.728;38.022;2023-02-01T01:09:57;12.32;;;6.93;;
75071;SDS011;63651;55.728;38.022;2023-02-01T01:14:58;11.60;;;6.65;;
75071;SDS011;63651;55.728;38.022;2023-02-01T01:19:59;11.15;;;7.22;;
75071;SDS011;63651;55.728;38.022;2023-02-01T01:25:00;11.07;;;6.57;;
75071;SDS011;63651;55.728;38.022;2023-02-01T01:30:01;11.38;;;6.50;;
75071;SDS011;63651;55.728;38.022;2023-02-01T01:35:02;11.63;;;6.68;;
75071;SDS011;63651;55.728;38.022;2023-02-01T01:40:04;11.88;;;6.38;;
75071;SDS011;63651;55.728;38.022;2023-02-01T01:45:07;12.10;;;6.90;;
75071;SDS011;63651;55.728;38.022;2023-02-01T01:50:24;11.18;;;6.60;;
75071;SDS011;63651;55.728;38.022;2023-02-01T01:55:48;10.38;;;6.82;;
75071;SDS011;63651;55.728;38.022;2023-02-01T02:00:51;11.13;;;6.80;;
75071;SDS011;63651;55.728;38.022;2023-02-01T02:05:55;11.07;;;6.47;;
75071;SDS011;63651;55.728;38.022;2023-02-01T02:10:59;11.93;;;6.68;;
75071;SDS011;63651;55.728;38.022;2023-02-01T02:26:45;13.15;;;6.80;;
75071;SDS011;63651;55.728;38.022;2023-02-01T02:59:26;12.75;;;7.80;;
75071;SDS011;63651;55.728;38.022;2023-02-01T03:04:51;10.77;;;6.60;;
75071;SDS011;63651;55.728;38.022;2023-02-01T03:09:56;12.88;;;7.32;;
75071;SDS011;63651;55.728;38.022;2023-02-01T03:15:03;11.65;;;6.65;;
75071;SDS011;63651;55.728;38.022;2023-02-01T03:20:13;11.32;;;7.10;;
75071;SDS011;63651;55.728;38.022;2023-02-01T03:25:25;11.82;;;7.03;;
75071;SDS011;63651;55.728;38.022;2023-02-01T03:30:30;13.52;;;8.18;;
75071;SDS011;63651;55.728;38.022;2023-02-01T03:40:55;14.75;;;8.30;;
75071;SDS011;63651;55.728;38.022;2023-02-01T03:46:00;13.48;;;8.05;;
75071;SDS011;63651;55.728;38.022;2023-02-01T03:51:05;12.32;;;7.85;;
75071;SDS011;63651;55.728;38.022;2023-02-01T03:56:08;12.27;;;6.95;;
75071;SDS011;63651;55.728;38.022;2023-02-01T04:01:12;14.68;;;7.50;;
75071;SDS011;63651;55.728;38.022;2023-02-01T04:06:13;11.98;;;7.18;;
75071;SDS011;63651;55.728;38.022;2023-02-01T04:11:14;13.85;;;7.57;;
75071;SDS011;63651;55.728;38.022;2023-02-01T04:16:15;22.98;;;7.90;;
75071;SDS011;63651;55.728;38.022;2023-02-01T04:21:16;13.43;;;7.60;;
75071;SDS011;63651;55.728;38.022;2023-02-01T04:26:17;12.85;;;7.50;;
75071;SDS011;63651;55.728;38.022;2023-02-01T04:31:19;12.77;;;7.57;;
75071;SDS011;63651;55.728;38.022;2023-02-01T04:36:27;13.98;;;7.88;;
75071;SDS011;63651;55.728;38.022;2023-02-01T04:41:29;14.27;;;7.40;;
75071;SDS011;63651;55.728;38.022;2023-02-01T04:46:30;14.70;;;7.90;;
75071;SDS011;63651;55.728;38.022;2023-02-01T04:51:31;14.55;;;7.70;;
75071;SDS011;63651;55.728;38.022;2023-02-01T04:56:33;14.07;;;7.82;;
75071;SDS011;63651;55.728;38.022;2023-02-01T05:01:37;13.65;;;8.55;;
75071;SDS011;63651;55.728;38.022;2023-02-01T05:06:38;12.40;;;8.00;;
75071;SDS011;63651;55.728;38.022;2023-02-01T05:11:39;14.07;;;8.02;;
75071;SDS011;63651;55.728;38.022;2023-02-01T05:16:59;14.23;;;8.25;;
75071;SDS011;63651;55.728;38.022;2023-02-01T05:22:00;15.65;;;8.63;;
75071;SDS011;63651;55.728;38.022;2023-02-01T05:27:02;16.42;;;9.20;;
75071;SDS011;63651;55.728;38.022;2023-02-01T05:32:03;17.52;;;9.55;;
75071;SDS011;63651;55.728;38.022;2023-02-01T05:37:04;17.35;;;9.63;;
75071;SDS011;63651;55.728;38.022;2023-02-01T05:42:05;18.23;;;9.27;;
75071;SDS011;63651;55.728;38.022;2023-02-01T05:47:06;16.85;;;9.93;;
75071;SDS011;63651;55.728;38.022;2023-02-01T05:52:08;16.60;;;9.65;;
75071;SDS011;63651;55.728;38.022;2023-02-01T05:57:09;17.35;;;10.30;;
75071;SDS011;63651;55.728;38.022;2023-02-01T06:02:11;17.58;;;9.10;;
75071;SDS011;63651;55.728;38.022;2023-02-01T06:07:12;17.52;;;9.70;;
75071;SDS011;63651;55.728;38.022;2023-02-01T06:12:13;15.77;;;9.82;;
75071;SDS011;63651;55.728;38.022;2023-02-01T06:17:14;17.25;;;9.43;;
75071;SDS011;63651;55.728;38.022;2023-02-01T06:22:15;18.08;;;10.13;;
75071;SDS011;63651;55.728;38.022;2023-02-01T06:27:17;18.85;;;10.38;;
75071;SDS011;63651;55.728;38.022;2023-02-01T06:32:18;19.50;;;10.85;;
75071;SDS011;63651;55.728;38.022;2023-02-01T06:37:19;18.27;;;10.20;;
75071;SDS011;63651;55.728;38.022;2023-02-01T06:42:20;20.60;;;10.25;;
75071;SDS011;63651;55.728;38.022;2023-02-01T06:47:21;15.93;;;9.23;;
75071;SDS011;63651;55.728;38.022;2023-02-01T06:52:22;15.90;;;8.75;;
75071;SDS011;63651;55.728;38.022;2023-02-01T06:57:23;17.42;;;9.38;;
75071;SDS011;63651;55.728;38.022;2023-02-01T07:02:24;15.50;;;8.55;;
75071;SDS011;63651;55.728;38.022;2023-02-01T07:07:25;13.80;;;8.43;;
75071;SDS011;63651;55.728;38.022;2023-02-01T07:12:26;15.20;;;8.95;;
75071;SDS011;63651;55.728;38.022;2023-02-01T07:17:28;14.48;;;9.13;;
75071;SDS011;63651;55.728;38.022;2023-02-01T07:22:29;16.38;;;8.95;;
75071;SDS011;63651;55.728;38.022;2023-02-01T07:27:33;15.77;;;10.07;;
75071;SDS011;63651;55.728;38.022;2023-02-01T07:32:35;11.23;;;6.43;;
75071;SDS011;63651;55.728;38.022;2023-02-01T07:37:36;14.55;;;8.68;;
75071;SDS011;63651;55.728;38.022;2023-02-01T07:42:37;13.65;;;8.57;;
75071;SDS011;63651;55.728;38.022;2023-02-01T07:47:38;15.05;;;8.82;;
75071;SDS011;63651;55.728;38.022;2023-02-01T07:52:39;16.92;;;9.85;;
75071;SDS011;63651;55.728;38.022;2023-02-01T07:57:41;14.40;;;8.90;;
75071;SDS011;63651;55.728;38.022;2023-02-01T08:02:42;17.52;;;9.90;;
75071;SDS011;63651;55.728;38.022;2023-02-01T08:07:43;15.50;;;9.18;;
75071;SDS011;63651;55.728;38.022;2023-02-01T08:12:44;13.93;;;7.85;;
75071;SDS011;63651;55.728;38.022;2023-02-01T08:17:51;12.07;;;7.03;;
75071;SDS011;63651;55.728;38.022;2023-02-01T08:22:52;13.57;;;7.75;;
75071;SDS011;63651;55.728;38.022;2023-02-01T08:27:54;13.77;;;8.23;;
75071;SDS011;63651;55.728;38.022;2023-02-01T08:32:55;12.52;;;7.32;;
75071;SDS011;63651;55.728;38.022;2023-02-01T08:37:56;13.10;;;7.57;;
75071;SDS011;63651;55.728;38.022;2023-02-01T08:42:57;12.93;;;7.38;;
75071;SDS011;63651;55.728;38.022;2023-02-01T08:47:58;13.23;;;7.97;;
75071;SDS011;63651;55.728;38.022;2023-02-01T08:53:00;12.98;;;7.38;;
75071;SDS011;63651;55.728;38.022;2023-02-01T08:58:01;13.70;;;8.30;;
75071;SDS011;63651;55.728;38.022;2023-02-01T09:03:02;12.40;;;7.65;;
75071;SDS011;63651;55.728;38.022;2023-02-01T09:08:03;13.35;;;7.95;;
75071;SDS011;63651;55.728;38.022;2023-02-01T09:13:04;11.73;;;7.07;;
75071;SDS011;63651;55.728;38.022;2023-02-01T09:18:05;13.35;;;7.75;;
75071;SDS011;63651;55.728;38.022;2023-02-01T09:23:06;14.13;;;8.65;;
75071;SDS011;63651;55.728;38.022;2023-02-01T09:28:07;13.73;;;8.73;;
75071;SDS011;63651;55.728;38.022;2023-02-01T09:33:09;15.75;;;9.02;;
75071;SDS011;63651;55.728;38.022;2023-02-01T09:38:10;13.13;;;8.32;;
75071;SDS011;63651;55.728;38.022;2023-02-01T09:43:29;12.75;;;7.85;;
75071;SDS011;63651;55.728;38.022;2023-02-01T09:48:55;13.90;;;8.32;;
75071;SDS011;63651;55.728;38.022;2023-02-01T09:54:01;14.82;;;8.73;;
75071;SDS011;63651;55.728;38.022;2023-02-01T10:04:26;15.77;;;9.48;;
75071;SDS011;63651;55.728;38.022;2023-02-01T10:14:37;14.70;;;8.77;;
75071;SDS011;63651;55.728;38.022;2023-02-01T10:25:00;16.92;;;10.07;;
75071;SDS011;63651;55.728;38.022;2023-02-01T10:30:21;16.55;;;9.70;;
75071;SDS011;63651;55.728;38.022;2023-02-01T10:35:27;15.50;;;9.73;;
75071;SDS011;63651;55.728;38.022;2023-02-01T10:40:32;14.50;;;9.18;;
75071;SDS011;63651;55.728;38.022;2023-02-01T10:45:33;16.92;;;10.00;;
75071;SDS011;63651;55.728;38.022;2023-02-01T10:50:35;15.25;;;9.40;;
75071;SDS011;63651;55.728;38.022;2023-02-01T11:01:03;15.55;;;9.82;;
75071;SDS011;63651;55.728;38.022;2023-02-01T11:06:16;15.85;;;9.50;;
75071;SDS011;63651;55.728;38.022;2023-02-01T11:11:19;15.18;;;9.15;;
75071;SDS011;63651;55.728;38.022;2023-02-01T11:16:20;17.15;;;9.98;;
75071;SDS011;63651;55.728;38.022;2023-02-01T11:21:21;16.75;;;9.70;;
75071;SDS011;63651;55.728;38.022;2023-02-01T11:26:24;13.68;;;8.50;;
75071;SDS011;63651;55.728;38.022;2023-02-01T11:31:27;16.88;;;9.63;;
75071;SDS011;63651;55.728;38.022;2023-02-01T11:36:30;20.75;;;11.85;;
75071;SDS011;63651;55.728;38.022;2023-02-01T11:41:33;19.15;;;10.95;;
75071;SDS011;63651;55.728;38.022;2023-02-01T11:46:35;17.95;;;10.32;;
75071;SDS011;63651;55.728;38.022;2023-02-01T11:52:00;17.73;;;10.85;;
75071;SDS011;63651;55.728;38.022;2023-02-01T12:02:39;18.77;;;10.43;;
75071;SDS011;63651;55.728;38.022;2023-02-01T12:23:15;17.23;;;10.68;;
75071;SDS011;63651;55.728;38.022;2023-02-01T12:39:32;18.77;;;12.15;;
75071;SDS011;63651;55.728;38.022;2023-02-01T12:44:50;19.25;;;12.25;;
75071;SDS011;63651;55.728;38.022;2023-02-01T12:50:03;19.48;;;11.77;;
75071;SDS011;63651;55.728;38.022;2023-02-01T12:55:22;20.45;;;11.93;;
75071;SDS011;63651;55.728;38.022;2023-02-01T13:01:27;22.75;;;12.30;;
75071;SDS011;63651;55.728;38.022;2023-02-01T13:06:12;18.30;;;9.57;;
75071;SDS011;63651;55.728;38.022;2023-02-01T13:11:19;17.35;;;9.90;;
75071;SDS011;63651;55.728;38.022;2023-02-01T13:16:31;17.10;;;9.02;;
75071;SDS011;63651;55.728;38.022;2023-02-01T13:21:41;16.08;;;9.15;;
75071;SDS011;63651;55.728;38.022;2023-02-01T13:42:20;15.68;;;8.43;;
75071;SDS011;63651;55.728;38.022;2023-02-01T13:47:46;15.07;;;8.73;;
75071;SDS011;63651;55.728;38.022;2023-02-01T13:52:51;15.32;;;8.93;;
75071;SDS011;63651;55.728;38.022;2023-02-01T13:58:39;15.70;;;9.15;;
75071;SDS011;63651;55.728;38.022;2023-02-01T14:03:43;17.38;;;10.15;;
75071;SDS011;63651;55.728;38.022;2023-02-01T14:08:46;16.80;;;9.85;;
75071;SDS011;63651;55.728;38.022;2023-02-01T14:19:19;15.63;;;9.23;;
75071;SDS011;63651;55.728;38.022;2023-02-01T14:24:26;15.75;;;9.20;;
75071;SDS011;63651;55.728;38.022;2023-02-01T14:29:31;17.90;;;8.65;;
75071;SDS011;63651;55.728;38.022;2023-02-01T14:34:39;18.13;;;9.82;;
75071;SDS011;63651;55.728;38.022;2023-02-01T14:44:47;18.63;;;9.85;;
75071;SDS011;63651;55.728;38.022;2023-02-01T14:49:54;18.27;;;9.80;;
75071;SDS011;63651;55.728;38.022;2023-02-01T14:55:04;16.58;;;9.32;;
75071;SDS011;63651;55.728;38.022;2023-02-01T15:05:24;18.55;;;9.55;;
75071;SDS011;63651;55.728;38.022;2023-02-01T15:10:30;18.42;;;9.32;;
75071;SDS011;63651;55.728;38.022;2023-02-01T15:15:39;16.05;;;8.63;;
75071;SDS011;63651;55.728;38.022;2023-02-01T15:20:40;17.67;;;9.95;;
75071;SDS011;63651;55.728;38.022;2023-02-01T15:25:45;18.48;;;9.98;;
75071;SDS011;63651;55.728;38.022;2023-02-01T15:31:00;19.70;;;10.48;;
75071;SDS011;63651;55.728;38.022;2023-02-01T15:41:11;16.63;;;10.00;;
75071;SDS011;63651;55.728;38.022;2023-02-01T15:46:15;17.50;;;9.60;;
75071;SDS011;63651;55.728;38.022;2023-02-01T15:51:23;18.13;;;9.60;;
75071;SDS011;63651;55.728;38.022;2023-02-01T15:56:27;17.23;;;8.98;;
75071;SDS011;63651;55.728;38.022;2023-02-01T16:06:44;17.90;;;9.02;;
75071;SDS011;63651;55.728;38.022;2023-02-01T16:11:59;17.90;;;9.77;;
75071;SDS011;63651;55.728;38.022;2023-02-01T16:17:02;19.67;;;10.07;;
75071;SDS011;63651;55.728;38.022;2023-02-01T16:22:03;16.85;;;9.30;;
75071;SDS011;63651;55.728;38.022;2023-02-01T16:27:04;17.67;;;9.52;;
75071;SDS011;63651;55.728;38.022;2023-02-01T16:32:11;16.75;;;9.13;;
75071;SDS011;63651;55.728;38.022;2023-02-01T16:37:21;18.52;;;9.75;;
75071;SDS011;63651;55.728;38.022;2023-02-01T16:42:24;17.63;;;9.48;;
75071;SDS011;63651;55.728;38.022;2023-02-01T16:47:25;15.38;;;8.57;;
75071;SDS011;63651;55.728;38.022;2023-02-01T16:52:26;18.05;;;10.07;;
75071;SDS011;63651;55.728;38.022;2023-02-01T16:57:27;15.93;;;8.77;;
75071;SDS011;63651;55.728;38.022;2023-02-01T17:02:29;14.55;;;8.82;;
75071;SDS011;63651;55.728;38.022;2023-02-01T17:07:31;17.80;;;9.45;;
75071;SDS011;63651;55.728;38.022;2023-02-01T17:12:32;17.67;;;9.55;;
75071;SDS011;63651;55.728;38.022;2023-02-01T17:17:35;17.85;;;9.68;;
75071;SDS011;63651;55.728;38.022;2023-02-01T17:22:38;15.30;;;8.98;;
75071;SDS011;63651;55.728;38.022;2023-02-01T17:27:40;15.93;;;8.70;;
75071;SDS011;63651;55.728;38.022;2023-02-01T17:32:41;16.55;;;9.55;;
75071;SDS011;63651;55.728;38.022;2023-02-01T17:37:43;15.55;;;9.27;;
75071;SDS011;63651;55.728;38.022;2023-02-01T17:42:44;16.25;;;9.93;;
75071;SDS011;63651;55.728;38.022;2023-02-01T17:47:45;17.45;;;9.23;;
75071;SDS011;63651;55.728;38.022;2023-02-01T17:52:47;15.77;;;9.40;;
75071;SDS011;63651;55.728;38.022;2023-02-01T17:57:48;17.23;;;9.25;;
75071;SDS011;63651;55.728;38.022;2023-02-01T18:02:50;15.20;;;9.35;;
75071;SDS011;63651;55.728;38.022;2023-02-01T18:07:51;17.90;;;10.05;;
75071;SDS011;63651;55.728;38.022;2023-02-01T18:12:52;16.80;;;9.13;;
75071;SDS011;63651;55.728;38.022;2023-02-01T18:17:53;14.88;;;9.05;;
75071;SDS011;63651;55.728;38.022;2023-02-01T18:22:54;17.25;;;9.80;;
75071;SDS011;63651;55.728;38.022;2023-02-01T18:27:55;18.17;;;10.32;;
75071;SDS011;63651;55.728;38.022;2023-02-01T18:32:57;14.57;;;9.32;;
75071;SDS011;63651;55.728;38.022;2023-02-01T18:37:58;15.32;;;9.35;;
75071;SDS011;63651;55.728;38.022;2023-02-01T18:42:59;17.17;;;9.63;;
75071;SDS011;63651;55.728;38.022;2023-02-01T18:48:01;18.85;;;10.43;;
75071;SDS011;63651;55.728;38.022;2023-02-01T18:53:06;15.15;;;9.55;;
75071;SDS011;63651;55.728;38.022;2023-02-01T18:58:12;15.93;;;9.60;;
75071;SDS011;63651;55.728;38.022;2023-02-01T19:03:15;16.67;;;9.02;;
75071;SDS011;63651;55.728;38.022;2023-02-01T19:08:18;16.60;;;9.05;;
75071;SDS011;63651;55.728;38.022;2023-02-01T19:13:19;16.88;;;9.00;;
75071;SDS011;63651;55.728;38.022;2023-02-01T19:18:24;14.60;;;9.00;;
75071;SDS011;63651;55.728;38.022;2023-02-01T19:23:25;12.77;;;8.20;;
75071;SDS011;63651;55.728;38.022;2023-02-01T19:28:27;15.55;;;8.65;;
75071;SDS011;63651;55.728;38.022;2023-02-01T19:33:28;13.98;;;8.88;;
75071;SDS011;63651;55.728;38.022;2023-02-01T19:38:30;12.30;;;7.72;;
75071;SDS011;63651;55.728;38.022;2023-02-01T19:43:32;14.07;;;8.25;;
75071;SDS011;63651;55.728;38.022;2023-02-01T19:48:33;15.48;;;8.25;;
75071;SDS011;63651;55.728;38.022;2023-02-01T19:53:34;12.75;;;7.47;;
75071;SDS011;63651;55.728;38.022;2023-02-01T19:58:35;13.95;;;8.07;;
75071;SDS011;63651;55.728;38.022;2023-02-01T20:03:36;13.68;;;8.25;;
75071;SDS011;63651;55.728;38.022;2023-02-01T20:08:37;13.73;;;8.38;;
75071;SDS011;63651;55.728;38.022;2023-02-01T20:13:38;15.35;;;8.70;;
75071;SDS011;63651;55.728;38.022;2023-02-01T20:18:39;15.88;;;9.20;;
75071;SDS011;63651;55.728;38.022;2023-02-01T20:23:41;13.75;;;8.60;;
75071;SDS011;63651;55.728;38.022;2023-02-01T20:28:42;15.30;;;8.77;;
75071;SDS011;63651;55.728;38.022;2023-02-01T20:33:43;15.57;;;8.32;;
75071;SDS011;63651;55.728;38.022;2023-02-01T20:38:44;15.35;;;8.80;;
75071;SDS011;63651;55.728;38.022;2023-02-01T20:43:45;13.70;;;8.23;;
75071;SDS011;63651;55.728;38.022;2023-02-01T20:48:47;14.93;;;8.68;;
75071;SDS011;63651;55.728;38.022;2023-02-01T20:53:50;15.50;;;8.52;;
75071;SDS011;63651;55.728;38.022;2023-02-01T20:58:51;13.30;;;8.10;;
75071;SDS011;63651;55.728;38.022;2023-02-01T21:03:52;14.73;;;7.95;;
75071;SDS011;63651;55.728;38.022;2023-02-01T21:08:53;14.88;;;8.77;;
75071;SDS011;63651;55.728;38.022;2023-02-01T21:13:54;14.00;;;8.63;;
75071;SDS011;63651;55.728;38.022;2023-02-01T21:18:57;14.50;;;8.05;;
75071;SDS011;63651;55.728;38.022;2023-02-01T21:23:58;15.57;;;8.88;;
75071;SDS011;63651;55.728;38.022;2023-02-01T21:29:00;15.38;;;8.38;;
75071;SDS011;63651;55.728;38.022;2023-02-01T21:34:01;13.95;;;7.95;;
75071;SDS011;63651;55.728;38.022;2023-02-01T21:39:04;14.10;;;8.18;;
75071;SDS011;63651;55.728;38.022;2023-02-01T21:44:07;13.73;;;7.75;;
75071;SDS011;63651;55.728;38.022;2023-02-01T21:49:09;13.63;;;7.70;;
75071;SDS011;63651;55.728;38.022;2023-02-01T21:54:10;14.00;;;7.82;;
75071;SDS011;63651;55.728;38.022;2023-02-01T21:59:12;13.73;;;7.78;;
75071;SDS011;63651;55.728;38.022;2023-02-01T22:04:13;15.57;;;8.02;;
75071;SDS011;63651;55.728;38.022;2023-02-01T22:09:15;13.57;;;7.53;;
75071;SDS011;63651;55.728;38.022;2023-02-01T22:14:19;15.18;;;7.68;;
75071;SDS011;63651;55.728;38.022;2023-02-01T22:19:21;13.75;;;7.35;;
75071;SDS011;63651;55.728;38.022;2023-02-01T22:24:22;12.15;;;7.60;;
75071;SDS011;63651;55.728;38.022;2023-02-01T22:29:23;12.40;;;7.05;;
75071;SDS011;63651;55.728;38.022;2023-02-01T22:34:26;13.98;;;7.97;;
75071;SDS011;63651;55.728;38.022;2023-02-01T22:39:27;11.13;;;6.88;;
75071;SDS011;63651;55.728;38.022;2023-02-01T22:44:28;11.25;;;7.18;;
75071;SDS011;63651;55.728;38.022;2023-02-01T22:49:29;12.13;;;7.53;;
75071;SDS011;63651;55.728;38.022;2023-02-01T22:54:30;12.75;;;7.05;;
75071;SDS011;63651;55.728;38.022;2023-02-01T22:59:31;13.52;;;7.30;;
75071;SDS011;63651;55.728;38.022;2023-02-01T23:04:32;13.13;;;7.85;;
75071;SDS011;63651;55.728;38.022;2023-02-01T23:09:33;14.48;;;8.20;;
75071;SDS011;63651;55.728;38.022;2023-02-01T23:14:34;13.02;;;8.43;;
75071;SDS011;63651;55.728;38.022;2023-02-01T23:19:55;12.32;;;7.85;;
75071;SDS011;63651;55.728;38.022;2023-02-01T23:24:56;13.73;;;8.38;;
75071;SDS011;63651;55.728;38.022;2023-02-01T23:29:57;14.98;;;8.45;;
75071;SDS011;63651;55.728;38.022;2023-02-01T23:34:58;14.07;;;7.72;;
75071;SDS011;63651;55.728;38.022;2023-02-01T23:40:00;14.48;;;8.68;;
75071;SDS011;63651;55.728;38.022;2023-02-01T23:45:01;13.82;;;7.97;;
75071;SDS011;63651;55.728;38.022;2023-02-01T23:50:02;13.50;;;7.85;;
75071;SDS011;63651;55.728;38.022;2023-02-01T23:55:04;12.75;;;7.55;;
